Aviation Digital Data Service (ADDS)

Output produced by METARs form (1514 UTC 24 May 2015)
found at http://aviationweather.gov/adds/metars/
 
KAVL 241126Z 2412/2512 14003KT P6SM FEW250 
     FM241600 17007KT P6SM FEW250 
     FM250600 16005KT P6SM SCT050 
     FM250800 16005KT P6SM BKN020 
     FM250900 17005KT P6SM BKN015